createdAt,value
2023-03-28T00:01:25.345Z,100.00
2023-03-28T00:03:51.811Z,100.00
2023-03-28T00:06:18.167Z,100.00
2023-03-28T00:08:44.533Z,100.00
2023-03-28T00:11:10.909Z,100.00
2023-03-28T00:13:37.250Z,100.00
2023-03-28T00:16:03.738Z,100.00
2023-03-28T00:18:30.044Z,100.00
2023-03-28T00:20:56.425Z,100.00
2023-03-28T00:23:22.813Z,100.00
2023-03-28T00:25:49.192Z,100.00
2023-03-28T00:28:15.508Z,100.00
2023-03-28T00:30:41.903Z,100.00
2023-03-28T00:33:08.259Z,99.98
2023-03-28T00:35:34.667Z,100.00
2023-03-28T00:38:00.943Z,97.43
2023-03-28T00:40:27.285Z,98.45
2023-03-28T00:42:53.672Z,95.49
2023-03-28T00:45:20.291Z,93.82
2023-03-28T00:47:46.666Z,92.08
2023-03-28T00:50:12.985Z,91.01
2023-03-28T00:52:39.367Z,91.06
2023-03-28T00:55:05.738Z,90.73
2023-03-28T00:57:32.174Z,90.11
2023-03-28T00:59:58.445Z,90.11
2023-03-28T01:02:24.933Z,90.02
2023-03-28T01:04:51.115Z,90.61
2023-03-28T01:07:17.475Z,91.12
2023-03-28T01:09:43.822Z,88.38
2023-03-28T01:12:10.172Z,87.81
2023-03-28T01:14:36.515Z,87.89
2023-03-28T01:17:02.833Z,87.59
2023-03-28T01:19:29.181Z,87.23
2023-03-28T01:21:55.537Z,87.21
2023-03-28T01:24:21.865Z,86.29
2023-03-28T01:26:48.241Z,86.79
2023-03-28T01:29:14.621Z,86.18
2023-03-28T01:31:41.039Z,85.75
2023-03-28T01:34:07.367Z,85.00
2023-03-28T01:36:35.610Z,85.17
2023-03-28T01:39:00.025Z,84.73
2023-03-28T01:41:26.340Z,85.72
2023-03-28T01:43:52.694Z,85.01
2023-03-28T01:46:19.076Z,84.92
2023-03-28T01:48:45.422Z,84.37
2023-03-28T01:51:11.755Z,84.48
2023-03-28T01:53:38.128Z,83.87
2023-03-28T01:56:04.505Z,83.25
2023-03-28T01:58:30.864Z,83.35
2023-03-28T02:00:57.239Z,83.68
2023-03-28T02:03:23.619Z,84.18
2023-03-28T02:05:49.936Z,84.13
2023-03-28T02:08:16.290Z,84.40
2023-03-28T02:10:42.648Z,83.82
2023-03-28T02:13:09.042Z,83.20
2023-03-28T02:15:35.416Z,83.99
2023-03-28T02:18:01.832Z,83.82
2023-03-28T02:20:28.122Z,83.92
2023-03-28T02:22:54.455Z,84.02
2023-03-28T02:25:20.778Z,84.02
2023-03-28T02:27:47.207Z,84.17
2023-03-28T02:30:13.532Z,83.29
2023-03-28T02:32:39.883Z,83.49
2023-03-28T02:35:06.255Z,83.23
2023-03-28T02:37:32.664Z,83.50
2023-03-28T02:39:59.024Z,83.37
2023-03-28T02:42:25.378Z,82.91
2023-03-28T02:44:51.730Z,83.09
2023-03-28T02:47:18.084Z,83.17
2023-03-28T02:49:50.368Z,82.81
2023-03-28T02:52:10.843Z,82.22
2023-03-28T02:54:37.203Z,82.20
2023-03-28T02:57:03.556Z,81.64
2023-03-28T02:59:29.881Z,81.64
2023-03-28T03:01:56.274Z,81.68
2023-03-28T03:04:22.563Z,81.33
2023-03-28T03:06:49.202Z,81.53
2023-03-28T03:09:15.541Z,81.05
2023-03-28T03:11:42.081Z,80.05
2023-03-28T03:14:08.370Z,79.99
2023-03-28T03:16:34.836Z,79.98
2023-03-28T03:19:01.116Z,79.62
2023-03-28T03:21:27.480Z,79.46
2023-03-28T03:23:53.844Z,79.05
2023-03-28T03:26:20.212Z,79.07
2023-03-28T03:28:46.557Z,78.95
2023-03-28T03:31:12.952Z,77.53
2023-03-28T03:33:39.292Z,76.76
2023-03-28T03:36:05.793Z,76.54
2023-03-28T03:38:32.030Z,76.98
2023-03-28T03:40:58.462Z,77.06
2023-03-28T03:43:24.822Z,76.48
2023-03-28T03:45:51.228Z,76.83
2023-03-28T03:48:17.583Z,76.95
2023-03-28T03:50:43.965Z,76.81
2023-03-28T03:53:10.267Z,76.76
2023-03-28T03:55:36.616Z,76.85
2023-03-28T03:58:02.954Z,76.89
2023-03-28T04:00:29.359Z,76.40
2023-03-28T04:02:55.723Z,77.01
2023-03-28T04:05:22.080Z,76.59
2023-03-28T04:07:48.469Z,76.23
2023-03-28T04:10:14.811Z,76.70
2023-03-28T04:12:41.162Z,76.76
2023-03-28T04:15:07.582Z,76.15
2023-03-28T04:17:33.952Z,76.48
2023-03-28T04:20:00.297Z,76.30
2023-03-28T04:22:26.663Z,76.05
2023-03-28T04:24:53.024Z,76.15
2023-03-28T04:27:19.341Z,76.29
2023-03-28T04:29:45.729Z,76.21
2023-03-28T04:32:12.089Z,77.00
2023-03-28T04:34:39.061Z,76.22
2023-03-28T04:37:04.772Z,76.29
2023-03-28T04:39:31.111Z,75.80
2023-03-28T04:41:57.481Z,74.48
2023-03-28T04:44:24.132Z,74.29
2023-03-28T04:46:50.487Z,73.91
2023-03-28T04:49:16.887Z,73.36
2023-03-28T04:51:43.278Z,72.19
2023-03-28T04:54:09.688Z,72.68
2023-03-28T04:56:37.112Z,72.39
2023-03-28T04:59:03.502Z,72.16
2023-03-28T05:01:29.850Z,72.09
2023-03-28T05:03:56.144Z,72.25
2023-03-28T05:06:24.735Z,72.02
2023-03-28T05:08:51.092Z,72.25
2023-03-28T05:11:17.465Z,72.92
2023-03-28T05:13:43.853Z,72.82
2023-03-28T05:16:12.659Z,71.98
2023-03-28T05:18:38.966Z,71.62
2023-03-28T05:21:05.273Z,71.61
2023-03-28T05:23:31.648Z,71.12
2023-03-28T05:25:58.010Z,71.06
2023-03-28T05:28:24.388Z,71.10
2023-03-28T05:30:50.713Z,70.83
2023-03-28T05:33:17.133Z,70.47
2023-03-28T05:35:43.529Z,69.92
2023-03-28T05:38:09.826Z,69.94
2023-03-28T05:40:36.216Z,69.78
2023-03-28T05:43:02.580Z,70.07
2023-03-28T05:45:28.946Z,70.05
2023-03-28T05:47:55.278Z,69.85
2023-03-28T05:50:21.651Z,68.96
2023-03-28T05:52:48.009Z,69.11
2023-03-28T05:55:14.386Z,69.12
2023-03-28T05:57:40.814Z,69.43
2023-03-28T06:00:09.026Z,69.25
2023-03-28T06:02:35.353Z,69.33
2023-03-28T06:05:01.848Z,69.18
2023-03-28T06:07:39.354Z,69.16
2023-03-28T06:09:54.771Z,69.67
2023-03-28T06:12:21.173Z,68.96
2023-03-28T06:14:47.574Z,68.38
2023-03-28T06:17:14.000Z,68.27
2023-03-28T06:19:40.316Z,68.34
2023-03-28T06:22:06.678Z,68.00
2023-03-28T06:24:33.058Z,67.93
2023-03-28T06:26:59.396Z,67.97
2023-03-28T06:29:25.825Z,67.88
2023-03-28T06:31:52.249Z,66.46
2023-03-28T06:34:18.516Z,66.94
2023-03-28T06:36:44.894Z,66.86
2023-03-28T06:39:11.259Z,66.82
2023-03-28T06:41:37.624Z,67.14
2023-03-28T06:44:04.006Z,66.81
2023-03-28T06:46:30.360Z,66.90
2023-03-28T06:48:56.839Z,67.75
2023-03-28T06:51:23.210Z,67.50
2023-03-28T06:53:49.631Z,67.24
2023-03-28T06:56:15.942Z,67.49
2023-03-28T06:58:42.355Z,67.65
2023-03-28T07:01:08.718Z,67.71
2023-03-28T07:03:35.181Z,67.12
2023-03-28T07:06:01.429Z,67.37
2023-03-28T07:08:28.195Z,67.69
2023-03-28T07:10:54.555Z,67.79
2023-03-28T07:13:20.898Z,67.36
2023-03-28T07:15:47.303Z,67.11
2023-03-28T07:18:13.687Z,65.80
2023-03-28T07:20:41.056Z,65.44
2023-03-28T07:23:07.470Z,64.98
2023-03-28T07:25:33.887Z,64.57
2023-03-28T07:28:00.218Z,62.87
2023-03-28T07:30:26.656Z,62.13
2023-03-28T07:33:01.676Z,62.63
2023-03-28T07:35:19.326Z,61.77
2023-03-28T07:37:46.050Z,62.32
2023-03-28T07:40:12.396Z,62.19
2023-03-28T07:42:38.809Z,61.84
2023-03-28T07:45:05.245Z,61.45
2023-03-28T07:47:31.668Z,61.83
2023-03-28T07:49:57.953Z,63.25
2023-03-28T07:52:24.386Z,63.62
2023-03-28T07:54:50.742Z,63.28
2023-03-28T07:57:17.256Z,63.44
2023-03-28T07:59:43.735Z,62.69
2023-03-28T08:02:10.130Z,63.10
2023-03-28T08:04:36.453Z,64.07
2023-03-28T08:07:02.846Z,62.82
2023-03-28T08:09:29.210Z,62.75
2023-03-28T08:11:55.561Z,63.09
2023-03-28T08:14:22.226Z,63.65
2023-03-28T08:16:48.624Z,63.17
2023-03-28T08:19:15.038Z,63.55
2023-03-28T08:21:41.391Z,62.58
2023-03-28T08:24:07.956Z,62.82
2023-03-28T08:26:34.320Z,63.04
2023-03-28T08:29:00.692Z,63.50
2023-03-28T08:31:27.052Z,62.86
2023-03-28T08:33:53.362Z,62.17
2023-03-28T08:36:19.742Z,62.39
2023-03-28T08:38:46.117Z,62.48
2023-03-28T08:41:12.456Z,63.04
2023-03-28T08:43:38.821Z,62.99
2023-03-28T08:46:05.262Z,62.67
2023-03-28T08:48:31.602Z,61.41
2023-03-28T08:50:58.032Z,60.44
2023-03-28T08:53:24.395Z,60.71
2023-03-28T08:55:52.301Z,60.80
2023-03-28T08:58:17.030Z,61.17
2023-03-28T09:00:43.390Z,60.90
2023-03-28T09:03:09.801Z,60.35
2023-03-28T09:05:36.101Z,59.41
2023-03-28T09:08:02.475Z,59.93
2023-03-28T09:10:28.889Z,60.17
2023-03-28T09:12:55.250Z,60.10
2023-03-28T09:15:21.580Z,58.83
2023-03-28T09:17:48.169Z,60.40
2023-03-28T09:20:14.523Z,59.66
2023-03-28T09:22:40.906Z,60.02
2023-03-28T09:25:07.313Z,61.28
2023-03-28T09:27:33.676Z,60.01
2023-03-28T09:30:00.122Z,60.34
2023-03-28T09:32:26.671Z,60.53
2023-03-28T09:34:53.012Z,60.75
2023-03-28T09:37:19.379Z,60.67
2023-03-28T09:39:45.729Z,60.39
2023-03-28T09:42:12.130Z,61.10
2023-03-28T09:44:50.970Z,59.97
2023-03-28T09:47:04.887Z,60.34
2023-03-28T09:49:31.251Z,60.43
2023-03-28T09:51:57.594Z,59.04
2023-03-28T09:54:23.973Z,57.24
2023-03-28T09:56:50.349Z,54.99
2023-03-28T09:59:16.725Z,55.81
2023-03-28T10:01:43.122Z,56.29
2023-03-28T10:04:09.529Z,56.92
2023-03-28T10:06:35.830Z,56.89
2023-03-28T10:09:02.295Z,56.78
2023-03-28T10:11:28.620Z,56.06
2023-03-28T10:13:55.009Z,55.05
2023-03-28T10:16:21.412Z,56.54
2023-03-28T10:18:47.789Z,56.10
2023-03-28T10:21:14.331Z,51.49
2023-03-28T10:23:40.746Z,51.31
2023-03-28T10:26:07.152Z,52.18
2023-03-28T10:28:33.802Z,53.56
2023-03-28T10:31:00.275Z,55.12
2023-03-28T10:33:26.513Z,56.05
2023-03-28T10:35:53.028Z,57.06
2023-03-28T10:38:19.347Z,57.48
2023-03-28T10:40:45.693Z,58.09
2023-03-28T10:43:12.099Z,56.53
2023-03-28T10:45:38.431Z,50.92
2023-03-28T10:48:04.920Z,50.20
2023-03-28T10:50:31.161Z,51.07
2023-03-28T10:52:57.556Z,52.55
2023-03-28T10:55:24.059Z,55.47
2023-03-28T10:57:50.397Z,56.42
2023-03-28T11:00:16.732Z,54.85
2023-03-28T11:02:43.205Z,52.90
2023-03-28T11:05:09.545Z,53.06
2023-03-28T11:07:35.975Z,52.59
2023-03-28T11:10:02.301Z,52.58
2023-03-28T11:12:31.011Z,52.45
2023-03-28T11:14:55.129Z,47.93
2023-03-28T11:17:21.534Z,46.77
2023-03-28T11:19:48.100Z,45.88
2023-03-28T11:22:14.488Z,47.22
2023-03-28T11:24:40.895Z,47.48
2023-03-28T11:27:15.352Z,47.37
2023-03-28T11:29:42.593Z,49.41
2023-03-28T11:32:00.205Z,49.75
2023-03-28T11:34:26.505Z,46.12
2023-03-28T11:36:52.903Z,45.68
2023-03-28T11:39:19.332Z,43.89
2023-03-28T11:41:45.774Z,44.87
2023-03-28T11:44:12.026Z,44.60
2023-03-28T11:46:38.526Z,45.33
2023-03-28T11:49:04.814Z,44.07
2023-03-28T11:51:31.178Z,42.73
2023-03-28T11:53:57.734Z,43.92
2023-03-28T11:56:24.111Z,44.44
2023-03-28T11:58:50.429Z,43.29
2023-03-28T12:01:16.881Z,43.51
2023-03-28T12:03:43.273Z,42.41
2023-03-28T12:06:10.946Z,41.87
2023-03-28T12:08:35.949Z,42.47
2023-03-28T12:11:02.508Z,42.42
2023-03-28T12:13:28.909Z,42.51
2023-03-28T12:15:55.324Z,41.80
2023-03-28T12:18:21.722Z,41.88
2023-03-28T12:20:48.104Z,42.33
2023-03-28T12:23:14.489Z,41.98
2023-03-28T12:25:41.348Z,42.01
2023-03-28T12:28:07.737Z,41.16
2023-03-28T12:30:34.125Z,40.47
2023-03-28T12:33:00.507Z,42.05
2023-03-28T12:35:26.871Z,42.43
2023-03-28T12:37:53.383Z,42.02
2023-03-28T12:40:19.717Z,41.84
2023-03-28T12:42:46.103Z,40.13
2023-03-28T12:45:12.468Z,39.91
2023-03-28T12:47:38.837Z,42.00
2023-03-28T12:50:05.193Z,41.24
2023-03-28T12:52:31.822Z,40.69
2023-03-28T12:55:00.844Z,41.80
2023-03-28T12:59:51.016Z,42.21
2023-03-28T13:02:17.338Z,43.54
2023-03-28T13:04:44.313Z,43.66
2023-03-28T13:07:10.778Z,42.44
2023-03-28T13:09:37.174Z,41.93
2023-03-28T13:12:03.580Z,41.83
2023-03-28T13:14:30.473Z,42.70
2023-03-28T13:16:56.811Z,43.74
2023-03-28T13:19:23.208Z,43.71
2023-03-28T13:21:49.663Z,43.34
2023-03-28T13:24:16.039Z,43.35
2023-03-28T13:26:42.407Z,40.94
2023-03-28T13:29:08.991Z,41.48
2023-03-28T13:31:35.334Z,41.38
2023-03-28T13:34:01.970Z,42.37
2023-03-28T13:36:28.106Z,42.11
2023-03-28T13:38:54.443Z,42.25
2023-03-28T13:41:20.752Z,41.99
2023-03-28T13:43:47.147Z,41.07
2023-03-28T13:46:13.600Z,41.44
2023-03-28T13:48:39.888Z,42.00
2023-03-28T13:51:06.272Z,41.48
2023-03-28T13:53:46.432Z,41.90
2023-03-28T13:55:59.267Z,42.08
2023-03-28T13:58:25.368Z,40.92
2023-03-28T14:00:51.695Z,41.24
2023-03-28T14:03:18.410Z,40.52
2023-03-28T14:05:44.628Z,40.83
2023-03-28T14:08:11.003Z,40.67
2023-03-28T14:10:37.417Z,41.49
2023-03-28T14:13:03.773Z,41.12
2023-03-28T14:15:30.438Z,41.32
2023-03-28T14:17:56.518Z,41.59
2023-03-28T14:20:22.900Z,40.88
2023-03-28T14:22:59.871Z,41.69
2023-03-28T14:25:15.881Z,41.83
2023-03-28T14:27:42.263Z,42.16
2023-03-28T14:30:08.592Z,41.14
2023-03-28T14:32:37.823Z,40.50
2023-03-28T14:35:01.459Z,40.87
2023-03-28T14:37:27.948Z,41.63
2023-03-28T14:39:54.387Z,42.43
2023-03-28T14:42:20.732Z,42.41
2023-03-28T14:44:47.113Z,41.35
2023-03-28T14:47:13.525Z,41.53
2023-03-28T14:49:39.920Z,41.43
2023-03-28T14:52:06.313Z,40.69
2023-03-28T14:54:32.889Z,40.19
2023-03-28T14:56:59.161Z,39.94
2023-03-28T14:59:25.485Z,40.47
2023-03-28T15:01:51.905Z,40.78
2023-03-28T15:04:18.149Z,41.20
2023-03-28T15:06:44.535Z,41.62
2023-03-28T15:09:10.868Z,42.23
2023-03-28T15:11:37.213Z,42.44
2023-03-28T15:14:04.390Z,42.26
2023-03-28T15:16:30.853Z,42.12
2023-03-28T15:18:57.403Z,42.45
2023-03-28T15:21:23.844Z,42.32
2023-03-28T15:23:50.140Z,42.49
2023-03-28T15:26:16.545Z,42.60
2023-03-28T15:28:42.860Z,43.03
2023-03-28T15:31:09.969Z,42.94
2023-03-28T15:33:36.273Z,43.88
2023-03-28T15:36:02.682Z,45.23
2023-03-28T15:38:29.310Z,46.33
2023-03-28T15:40:55.665Z,46.85
2023-03-28T15:43:23.151Z,47.84
2023-03-28T15:45:49.612Z,48.46
2023-03-28T15:48:15.987Z,49.27
2023-03-28T15:50:42.377Z,49.69
2023-03-28T15:53:08.764Z,50.53
2023-03-28T15:55:35.157Z,51.45
2023-03-28T15:58:01.506Z,52.17
2023-03-28T16:00:27.868Z,54.18
2023-03-28T16:02:55.749Z,55.31
2023-03-28T16:05:21.945Z,55.91
2023-03-28T16:07:48.430Z,56.41
2023-03-28T16:10:24.570Z,57.20
2023-03-28T16:12:57.074Z,57.05
2023-03-28T16:15:23.569Z,57.41
2023-03-28T16:17:55.456Z,57.88
2023-03-28T16:20:22.917Z,58.02
2023-03-28T16:22:49.735Z,58.21
2023-03-28T16:25:16.137Z,58.28
2023-03-28T16:27:46.149Z,57.97
2023-03-28T16:30:13.212Z,57.97
2023-03-28T16:32:39.674Z,58.03
2023-03-28T16:35:06.163Z,57.39
2023-03-28T16:37:32.647Z,55.66
2023-03-28T16:40:03.566Z,55.52
2023-03-28T16:42:31.261Z,54.82
2023-03-28T16:44:57.974Z,54.08
2023-03-28T16:47:24.666Z,53.51
2023-03-28T16:49:51.372Z,53.16
2023-03-28T16:52:19.765Z,52.88
2023-03-28T16:54:47.281Z,52.60
2023-03-28T16:57:13.648Z,52.15
2023-03-28T16:59:41.049Z,52.28
2023-03-28T17:02:07.623Z,52.73
2023-03-28T17:04:33.974Z,54.29
2023-03-28T17:07:00.363Z,55.90
2023-03-28T17:09:26.710Z,57.29
2023-03-28T17:11:53.122Z,58.76
2023-03-28T17:14:19.654Z,59.65
2023-03-28T17:16:46.033Z,60.51
2023-03-28T17:19:12.382Z,61.32
2023-03-28T17:21:39.932Z,62.16
2023-03-28T17:24:06.286Z,62.47
2023-03-28T17:26:33.508Z,62.38
2023-03-28T17:28:59.881Z,62.43
2023-03-28T17:31:26.359Z,62.37
2023-03-28T17:33:55.239Z,62.51
2023-03-28T17:36:22.106Z,62.82
2023-03-28T17:38:48.974Z,62.98
2023-03-28T17:41:22.829Z,63.07
2023-03-28T17:43:49.266Z,62.94
2023-03-28T17:46:15.726Z,63.27
2023-03-28T17:48:42.201Z,63.24
2023-03-28T17:51:08.603Z,63.36
2023-03-28T17:53:35.129Z,63.30
2023-03-28T17:56:01.793Z,63.58
2023-03-28T17:58:27.886Z,63.71
2023-03-28T18:00:54.890Z,64.17
2023-03-28T18:03:21.272Z,64.06
2023-03-28T18:05:47.593Z,64.30
2023-03-28T18:08:14.000Z,64.48
2023-03-28T18:10:40.573Z,64.94
2023-03-28T18:13:07.083Z,65.27
2023-03-28T18:15:33.437Z,65.30
2023-03-28T18:17:59.958Z,65.52
2023-03-28T18:20:26.325Z,65.75
2023-03-28T18:22:52.698Z,65.95
2023-03-28T18:25:19.137Z,66.05
2023-03-28T18:27:45.457Z,66.38
2023-03-28T18:30:11.814Z,66.55
2023-03-28T18:32:38.215Z,66.64
2023-03-28T18:35:04.534Z,67.09
2023-03-28T18:37:30.940Z,67.01
2023-03-28T18:39:57.323Z,67.22
2023-03-28T18:42:23.703Z,67.31
2023-03-28T18:44:50.112Z,67.55
2023-03-28T18:47:16.467Z,67.49
2023-03-28T18:49:43.342Z,67.56
2023-03-28T18:52:09.837Z,67.43
2023-03-28T18:54:36.278Z,67.68
2023-03-28T18:57:04.923Z,67.64
2023-03-28T18:59:31.201Z,67.77
2023-03-28T19:01:57.502Z,67.94
2023-03-28T19:04:23.968Z,68.13
2023-03-28T19:06:50.398Z,68.23
2023-03-28T19:09:16.826Z,68.28
2023-03-28T19:11:43.295Z,68.32
2023-03-28T19:14:09.642Z,68.40
2023-03-28T19:16:36.106Z,68.28
2023-03-28T19:19:02.435Z,68.30
2023-03-28T19:21:28.750Z,68.08
2023-03-28T19:23:55.206Z,68.26
2023-03-28T19:26:21.549Z,68.33
2023-03-28T19:28:47.904Z,68.48
2023-03-28T19:31:14.490Z,68.94
2023-03-28T19:33:40.622Z,69.05
2023-03-28T19:36:07.547Z,69.33
2023-03-28T19:38:33.802Z,69.52
2023-03-28T19:41:00.210Z,69.50
2023-03-28T19:43:27.193Z,69.38
2023-03-28T19:45:53.649Z,69.79
2023-03-28T19:48:20.023Z,70.02
2023-03-28T19:50:46.332Z,70.08
2023-03-28T19:53:12.720Z,70.15
2023-03-28T19:55:39.119Z,70.14
2023-03-28T19:58:05.503Z,70.12
2023-03-28T20:00:31.856Z,70.18
2023-03-28T20:02:58.533Z,70.12
2023-03-28T20:05:24.761Z,69.88
2023-03-28T20:07:51.139Z,69.69
2023-03-28T20:10:17.540Z,69.82
2023-03-28T20:12:43.916Z,70.02
2023-03-28T20:15:11.310Z,69.89
2023-03-28T20:17:37.799Z,70.22
2023-03-28T20:20:03.983Z,70.51
2023-03-28T20:22:30.323Z,70.49
2023-03-28T20:24:56.699Z,70.40
2023-03-28T20:27:23.086Z,70.17
2023-03-28T20:29:49.448Z,70.04
2023-03-28T20:32:15.810Z,70.14
2023-03-28T20:34:42.249Z,69.76
2023-03-28T20:37:08.592Z,69.68
2023-03-28T20:39:34.970Z,69.35
2023-03-28T20:42:01.586Z,69.00
2023-03-28T20:44:27.945Z,69.15
2023-03-28T20:46:54.402Z,69.32
2023-03-28T20:49:20.958Z,69.26
2023-03-28T20:51:47.591Z,68.80
2023-03-28T20:54:13.946Z,68.91
2023-03-28T20:56:40.292Z,69.10
2023-03-28T20:59:06.805Z,69.08
2023-03-28T21:01:33.205Z,69.11
2023-03-28T21:03:59.450Z,68.81
2023-03-28T21:06:25.860Z,68.71
2023-03-28T21:08:52.279Z,68.54
2023-03-28T21:11:18.606Z,68.48
2023-03-28T21:13:44.963Z,68.36
2023-03-28T21:16:11.420Z,68.17
2023-03-28T21:18:37.730Z,68.06
2023-03-28T21:21:04.232Z,68.07
2023-03-28T21:23:30.630Z,67.91
2023-03-28T21:25:57.001Z,67.87
2023-03-28T21:28:23.361Z,67.68
2023-03-28T21:30:49.791Z,67.57
2023-03-28T21:33:16.204Z,67.44
2023-03-28T21:35:42.638Z,67.36
2023-03-28T21:38:10.661Z,67.32
2023-03-28T21:40:35.436Z,67.41
2023-03-28T21:43:01.921Z,68.15
2023-03-28T21:45:28.343Z,68.36
2023-03-28T21:47:54.701Z,68.47
2023-03-28T21:50:21.158Z,68.69
2023-03-28T21:52:47.520Z,68.69
2023-03-28T21:55:15.169Z,70.22
2023-03-28T21:57:41.540Z,71.32
2023-03-28T22:00:08.140Z,73.15
2023-03-28T22:02:34.545Z,74.12
2023-03-28T22:05:00.909Z,74.86
2023-03-28T22:07:27.534Z,75.65
2023-03-28T22:09:53.970Z,76.16
2023-03-28T22:12:22.695Z,76.61
2023-03-28T22:14:49.206Z,76.38
2023-03-28T22:17:15.489Z,75.68
2023-03-28T22:19:41.836Z,75.23
2023-03-28T22:22:08.157Z,73.43
2023-03-28T22:24:34.539Z,71.87
2023-03-28T22:27:00.892Z,71.21
2023-03-28T22:29:27.280Z,70.35
2023-03-28T22:31:53.685Z,69.64
2023-03-28T22:34:19.993Z,69.56
2023-03-28T22:36:46.360Z,69.59
2023-03-28T22:39:12.684Z,69.37
2023-03-28T22:41:39.084Z,69.27
2023-03-28T22:44:05.452Z,69.07
2023-03-28T22:46:31.806Z,69.13
2023-03-28T22:48:58.154Z,69.05
2023-03-28T22:51:24.690Z,69.34
2023-03-28T22:53:51.004Z,69.17
2023-03-28T22:56:17.604Z,69.20
2023-03-28T22:58:43.961Z,69.42
2023-03-28T23:01:10.307Z,69.57
2023-03-28T23:03:36.793Z,69.73
2023-03-28T23:06:03.161Z,69.73
2023-03-28T23:08:29.493Z,69.92
2023-03-28T23:10:55.897Z,70.15
2023-03-28T23:13:22.212Z,70.45
2023-03-28T23:15:48.600Z,70.58
2023-03-28T23:18:14.925Z,70.87
2023-03-28T23:20:41.228Z,70.90
2023-03-28T23:23:07.792Z,70.95
2023-03-28T23:25:34.136Z,70.92
2023-03-28T23:28:00.672Z,71.08
2023-03-28T23:30:27.030Z,71.40
2023-03-28T23:32:53.547Z,71.55
2023-03-28T23:35:19.882Z,71.81
2023-03-28T23:37:46.198Z,72.09
2023-03-28T23:40:12.554Z,72.31
2023-03-28T23:42:38.887Z,72.67
2023-03-28T23:45:05.278Z,72.91
2023-03-28T23:47:31.858Z,73.22
2023-03-28T23:49:59.239Z,73.33
2023-03-28T23:52:25.643Z,73.51
2023-03-28T23:54:52.086Z,73.58
2023-03-28T23:57:18.566Z,73.64
2023-03-28T23:59:44.819Z,73.58
